Latest Weather Observations for Murrurundi Gap

IDN60801

Issued at 10:03 pm EST Friday 3 July 2015 (issued every 30 minutes, with the page automatically refreshed every 10 minutes)

About weather observations | Map of weather stations | Latest weather observations for NSW | Other Formats
Station Details ID: 061392 Name: MURRURUNDI GAP AWS Lat: -31.74 Lon: 150.79 Height: 729.4 m
Data from the previous 72 hours. | See also: Recent months for locations in New South Wales
Date/Time
EST
Temp
°C
App
Temp
°C
Dew
Point
Rel
Hum
%
Delta-T
°C
Wind Press
QNH
hPa
Press
MSL
hPa
Rain
since 9 am
mm
Dir
 
Spd
km/h
Gust
km/h
Spd
kts
Gust
kts
03/10:00pm 5.1 1.6 3.4 89 0.7 ESE 11 11 6 6 1025.0 1025.3 -
03/09:30pm 5.1 1.1 3.1 87 0.9 SE 13 15 7 8 1024.9 1025.2 0.0
03/09:00pm 5.1 1.1 3.1 87 0.9 SE 13 15 7 8 1024.9 1025.2 0.0
03/08:30pm 5.3 1.8 3.3 87 0.9 SE 11 13 6 7 1025.2 1025.5 0.0
03/08:00pm 5.5 2.0 3.3 86 1.0 SE 11 13 6 7 1025.2 1025.5 0.0
03/07:30pm 5.9 2.3 3.2 83 1.2 SE 11 13 6 7 1025.1 1025.4 0.0
03/07:00pm 5.9 2.7 3.2 83 1.2 ESE 9 11 5 6 1025.2 1025.5 0.0
03/06:30pm 6.3 3.1 3.3 81 1.3 SE 9 11 5 6 1024.9 1025.2 0.0
03/06:00pm 6.8 3.6 3.2 78 1.6 SE 9 13 5 7 1024.6 1024.9 0.0
03/05:30pm 7.0 3.8 3.3 77 1.6 SE 9 11 5 6 1024.3 1024.6 0.0
03/05:00pm 7.2 3.6 3.1 75 1.8 SE 11 15 6 8 1024.1 1024.4 0.0
03/04:30pm 7.6 3.6 3.1 73 2.0 SE 13 17 7 9 1024.0 1024.3 0.0
03/04:00pm 8.7 4.3 2.9 67 2.6 SE 15 19 8 10 1024.0 1024.3 0.0
03/03:30pm 9.0 4.7 3.0 66 2.7 ESE 15 19 8 10 1023.9 1024.2 0.0
03/03:00pm 9.2 4.5 3.0 65 2.8 ESE 17 22 9 12 1023.9 1024.2 0.0
03/02:30pm 9.6 5.4 3.6 66 2.7 ESE 15 20 8 11 1023.9 1024.2 0.0
03/02:00pm 9.1 4.3 2.4 63 2.9 E 17 20 9 11 1024.0 1024.3 0.0
03/01:30pm 9.1 4.4 3.3 67 2.6 ESE 17 22 9 12 1024.2 1024.5 0.0
03/01:00pm 8.5 2.7 2.5 66 2.6 ESE 22 28 12 15 1024.3 1024.6 0.0
03/12:30pm 8.3 1.8 2.5 67 2.5 SE 26 35 14 19 1024.6 1024.9 0.0
03/12:00pm 7.5 1.2 1.8 67 2.4 SE 24 32 13 17 1024.8 1025.1 0.0
03/11:30am 7.3 1.0 1.8 68 2.4 SE 24 33 13 18 1025.1 1025.4 0.0
03/11:00am 6.2 -1.0 0.5 67 2.3 SE 28 37 15 20 1025.4 1025.7 0.0
03/10:30am 5.9 -1.8 -0.2 65 2.4 SE 30 35 16 19 1025.6 1026.0 0.0
03/10:00am 5.7 -0.8 0.5 69 2.1 SE 24 32 13 17 1025.7 1026.1 0.0
03/09:30am 5.1 -1.4 0.1 70 2.0 SSE 24 30 13 16 1025.5 1025.8 0.0
03/09:00am 4.7 -1.0 -0.9 67 2.2 SSE 19 24 10 13 1025.3 1025.6 0.0
03/08:30am 4.2 -0.7 -0.6 71 1.9 SE 15 22 8 12 1025.0 1025.3 0.0
03/08:00am 3.2 -3.1 -1.0 74 1.6 SE 22 32 12 17 1024.2 1024.5 0.0
03/07:30am 2.5 -5.9 -1.1 77 1.4 SE 33 41 18 22 1023.3 1023.6 0.0
03/07:00am 2.2 -5.6 -1.1 79 1.2 SE 30 39 16 21 1023.1 1023.3 0.0
03/06:30am 1.7 -5.0 -1.0 82 1.0 SE 24 35 13 19 1023.3 1023.6 0.0
03/06:00am 1.6 -4.1 -1.0 83 1.0 SE 19 28 10 15 1023.2 1023.4 0.0
03/05:30am 2.3 -4.5 -2.0 73 1.6 SE 24 37 13 20 1022.5 1022.8 0.0
03/05:00am 2.9 -5.6 -1.8 71 1.7 SE 33 46 18 25 1021.9 1022.1 0.0
03/04:30am 3.1 -5.8 -1.8 70 1.8 SE 35 46 19 25 1021.5 1021.8 0.0
03/04:00am 3.8 -6.7 -2.2 65 2.2 SE 43 56 23 30 1021.2 1021.5 0.0
03/03:30am 4.1 -5.2 -1.9 65 2.3 SE 37 50 20 27 1021.7 1021.9 0.0
03/03:00am 4.1 -5.6 -2.1 64 2.3 SE 39 52 21 28 1021.9 1022.1 0.0
03/02:30am 3.9 -4.5 -0.7 72 1.8 SE 33 44 18 24 1022.0 1022.2 0.0
03/02:00am 4.5 -3.6 -0.3 71 1.9 SE 32 41 17 22 1022.2 1022.5 0.0
03/01:30am 4.7 -3.4 -0.5 69 2.0 SE 32 43 17 23 1022.1 1022.4 0.0
03/01:00am 4.3 -2.3 -0.5 71 1.9 SE 24 33 13 18 1022.4 1022.7 0.0
03/12:30am 4.9 -0.7 0.1 71 1.9 SE 19 26 10 14 1022.9 1023.2 0.0
03/12:00am 5.5 0.3 0.3 69 2.1 SSE 17 22 9 12 1023.3 1023.6 0.0
 
Date/Time
EST
Temp
°C
App
Temp
°C
Dew
Point
Rel
Hum
%
Delta-T
°C
Wind Press
QNH
hPa
Press
MSL
hPa
Rain
since 9 am
mm
Dir
 
Spd
km/h
Gust
km/h
Spd
kts
Gust
kts
02/11:30pm 5.6 0.9 0.8 71 2.0 SSE 15 24 8 13 1023.3 1023.6 0.0
02/11:00pm 6.2 3.0 0.7 68 2.3 SSW 7 13 4 7 1023.5 1023.8 0.0
02/10:30pm 6.5 2.2 1.2 69 2.2 SW 13 19 7 10 1023.5 1023.8 0.0
02/10:00pm 6.5 2.4 2.2 74 1.8 W 13 19 7 10 1023.6 1023.9 0.0
02/09:30pm 6.9 2.1 2.8 75 1.8 WNW 17 30 9 16 1023.5 1023.8 0.0
02/09:00pm 6.5 2.1 2.9 78 1.6 NNW 15 19 8 10 1023.2 1023.4 0.0
02/08:30pm 6.4 2.4 2.7 77 1.6 NNW 13 15 7 8 1023.2 1023.4 0.0
02/08:00pm 7.1 2.7 2.6 73 1.9 NNW 15 22 8 12 1023.4 1023.7 0.0
02/07:30pm 7.1 2.3 2.4 72 2.0 N 17 22 9 12 1023.1 1023.3 0.0
02/07:00pm 7.1 2.3 2.4 72 2.0 N 17 20 9 11 1022.8 1023.1 0.0
02/06:30pm 6.9 2.5 2.6 74 1.9 N 15 24 8 13 1022.4 1022.7 0.0
02/06:00pm 6.6 1.8 2.7 76 1.7 N 17 20 9 11 1022.0 1022.2 0.0
02/05:30pm 6.5 1.1 2.6 76 1.7 N 20 32 11 17 1021.4 1021.7 0.0
02/05:00pm 6.4 1.7 3.0 79 1.5 N 17 22 9 12 1021.7 1021.9 0.0
02/04:30pm 6.2 1.8 2.8 79 1.5 NNW 15 20 8 11 1021.4 1021.7 0.0
02/04:00pm 6.5 1.4 2.9 78 1.6 NW 19 26 10 14 1021.0 1021.3 0.0
02/03:30pm 6.4 0.0 3.0 79 1.5 NNW 26 32 14 17 1020.2 1020.4 0.0
02/03:00pm 6.3 -0.2 2.6 77 1.6 N 26 35 14 19 1020.2 1020.4 0.0
02/02:30pm 6.4 1.0 2.7 77 1.6 NNW 20 33 11 18 1020.6 1020.8 0.0
02/02:00pm 7.2 2.0 3.3 76 1.7 NNW 20 26 11 14 1020.5 1020.7 0.0
02/01:30pm 7.1 1.8 3.2 76 1.7 NW 20 26 11 14 1020.7 1020.9 0.0
02/01:13pm 6.1 0.7 2.4 77 1.6 NW 20 28 11 15 1020.8 1021.0 0.0
02/01:00pm 6.2 0.4 2.5 77 1.6 NNW 22 28 12 15 1020.9 1021.2 0.0
02/12:30pm 5.3 -0.4 2.8 84 1.1 NNW 22 30 12 16 1021.3 1021.6 0.0
02/12:00pm 3.9 -2.9 3.2 95 0.3 NW 28 35 15 19 1021.5 1021.8 0.0
02/11:30am 3.7 -3.6 2.7 93 0.4 NW 30 35 16 19 1021.8 1022.0 0.0
02/11:00am 3.9 -3.7 2.9 93 0.4 NW 32 35 17 19 1022.1 1022.4 0.0
02/10:30am 4.2 -1.8 3.6 96 0.3 NW 24 28 13 15 1022.0 1022.2 0.0
02/10:00am 3.8 -3.3 3.4 97 0.2 NW 30 37 16 20 1022.4 1022.7 0.0
02/09:30am 3.0 -3.8 2.9 99 0.0 NNW 28 33 15 18 1022.4 1022.7 0.0
02/09:27am 3.0 -3.9 2.7 98 0.1 NNW 28 33 15 18 1022.4 1022.7 0.0
02/09:00am 3.0 -3.9 2.6 97 0.2 NW 28 33 15 18 1022.0 1022.2 0.0
02/08:30am 3.3 -3.6 2.7 96 0.3 NW 28 33 15 18 1021.7 1021.9 0.0
02/08:00am 3.2 -4.5 2.3 94 0.4 NNW 32 37 17 20 1021.7 1021.9 0.0
02/07:30am 3.2 -3.7 2.3 94 0.4 NW 28 33 15 18 1021.9 1022.1 0.0
02/07:00am 3.1 -2.7 2.1 93 0.4 NW 22 28 12 15 1021.8 1022.0 0.0
02/06:30am 2.9 -2.5 2.2 95 0.3 WNW 20 24 11 13 1021.9 1022.1 0.0
02/06:00am 2.7 -3.9 2.1 96 0.2 NW 26 32 14 17 1022.0 1022.2 0.0
02/05:30am 2.7 -3.1 2.3 97 0.2 NW 22 28 12 15 1021.8 1022.0 0.0
02/05:00am 2.5 -4.1 2.1 97 0.2 NW 26 30 14 16 1021.4 1021.7 0.0
02/04:30am 2.8 -4.1 2.4 97 0.2 NW 28 32 15 17 1021.2 1021.5 0.0
02/04:00am 2.9 -4.1 2.2 95 0.3 NW 28 33 15 18 1021.2 1021.5 0.0
02/03:30am 3.1 -3.4 2.5 96 0.3 NW 26 32 14 17 1021.5 1021.8 0.0
02/03:00am 3.4 -3.5 2.5 94 0.4 NW 28 33 15 18 1021.8 1022.0 0.0
02/02:30am 3.4 -3.9 2.7 95 0.3 NW 30 35 16 19 1021.4 1021.7 0.0
02/02:00am 4.0 -3.2 3.0 93 0.4 NW 30 33 16 18 1021.7 1021.9 0.0
02/01:30am 4.3 -3.0 2.7 89 0.7 NNW 30 35 16 19 1021.9 1022.1 0.0
02/01:00am 4.8 -1.3 3.0 88 0.8 NW 24 28 13 15 1022.2 1022.5 0.0
02/12:30am 4.7 -1.0 2.6 86 0.9 NW 22 26 12 14 1022.3 1022.6 0.0
02/12:00am 5.4 0.3 2.9 84 1.1 NW 19 20 10 11 1022.8 1023.1 0.0
 
Date/Time
EST
Temp
°C
App
Temp
°C
Dew
Point
Rel
Hum
%
Delta-T
°C
Wind Press
QNH
hPa
Press
MSL
hPa
Rain
since 9 am
mm
Dir
 
Spd
km/h
Gust
km/h
Spd
kts
Gust
kts
01/11:30pm 5.5 0.3 2.7 82 1.2 NW 19 22 10 12 1023.2 1023.4 0.0
01/11:00pm 6.6 2.6 2.7 76 1.7 NW 13 17 7 9 1023.4 1023.7 0.0
01/10:30pm 6.9 3.2 2.4 73 1.9 NW 11 13 6 7 1023.4 1023.7 0.0
01/10:00pm 7.6 3.1 2.3 69 2.3 NNW 15 17 8 9 1023.4 1023.7 0.0
01/09:30pm 7.7 2.5 2.4 69 2.3 NNW 19 22 10 12 1023.6 1023.9 0.0
01/09:00pm 7.9 2.7 2.6 69 2.3 NNW 19 20 10 11 1023.8 1024.1 0.0
01/08:30pm 8.3 3.0 2.8 68 2.4 NNW 20 24 11 13 1023.6 1023.9 0.0
01/08:00pm 8.6 3.5 2.8 67 2.6 NNW 19 22 10 12 1023.5 1023.8 0.0
01/07:30pm 8.5 3.8 3.4 70 2.3 NW 17 19 9 10 1023.5 1023.8 0.0
01/07:00pm 9.1 5.0 4.1 71 2.3 NW 15 17 8 9 1023.6 1023.9 0.0
01/06:30pm 9.6 5.1 4.0 68 2.6 NW 17 20 9 11 1023.5 1023.8 0.0
01/06:00pm 9.9 5.2 5.1 72 2.3 NW 19 24 10 13 1022.9 1023.2 0.0
01/05:30pm 11.1 6.5 6.5 73 2.3 NNW 20 26 11 14 1022.7 1023.0 0.0
01/05:00pm 11.8 8.2 8.5 80 1.7 NNW 17 20 9 11 1022.7 1023.0 0.0
01/04:30pm 11.8 7.5 7.9 77 2.0 NNW 20 24 11 13 1022.7 1023.0 0.0
01/04:00pm 12.2 6.5 8.3 77 2.0 NNW 28 33 15 18 1022.5 1022.8 0.0
01/03:30pm 12.0 8.3 8.1 77 2.0 NNW 17 24 9 13 1022.6 1022.9 0.0
01/03:00pm 12.0 7.9 7.7 75 2.2 NW 19 24 10 13 1022.8 1023.1 0.0
01/02:30pm 11.9 7.4 8.7 81 1.7 NW 22 26 12 14 1022.9 1023.2 0.0
01/02:00pm 11.8 7.3 8.5 80 1.7 NNW 22 28 12 15 1023.3 1023.6 0.0
01/01:30pm 12.0 8.0 8.3 78 1.9 NNW 19 24 10 13 1023.8 1024.1 0.0
01/01:07pm 12.1 8.3 8.9 81 1.7 NNW 19 24 10 13 1024.0 1024.3 0.0
01/01:00pm 12.1 8.2 8.8 80 1.7 NW 19 24 10 13 1024.1 1024.4 0.0
01/12:30pm 12.0 8.1 8.8 81 1.7 NNW 19 24 10 13 1024.4 1024.8 0.0
01/12:00pm 12.2 9.0 9.9 86 1.2 NNW 17 22 9 12 1024.9 1025.2 0.0
01/11:30am 10.7 7.7 9.3 91 0.7 NW 15 20 8 11 1025.4 1025.7 0.0
01/11:00am 10.1 6.8 9.6 97 0.3 NNW 17 22 9 12 1025.8 1026.2 0.0
01/10:30am 10.4 7.5 9.8 96 0.3 NNW 15 19 8 10 1025.9 1026.3 0.0
01/10:13am 10.7 8.0 10.2 97 0.3 NW 15 19 8 10 1026.1 1026.4 0.0
01/10:08am 10.5 7.7 10.0 97 0.3 NNW 15 17 8 9 1026.2 1026.5 0.0
01/10:00am 10.5 7.7 9.9 96 0.3 NNW 15 17 8 9 1026.2 1026.5 0.0
01/09:30am 10.4 9.2 10.2 99 0.1 NNW 7 9 4 5 1026.2 1026.2 0.0
01/09:22am 10.4 9.2 10.2 99 0.1 NNW 7 9 4 5 1026.2 1026.2 0.0
01/09:00am 10.4 10.5 10.2 99 0.1 CALM 0 0 0 0 1026.1 1026.1 1.0
01/08:30am 9.7 9.6 9.6 99 0.1 CALM 0 0 0 0 1025.9 1026.0 1.0
01/08:28am 9.6 9.5 9.5 99 0.1 CALM 0 0 0 0 1025.9 1026.0 1.0
01/08:27am 9.6 9.5 9.5 99 0.1 CALM 0 0 0 0 1025.9 1026.0 1.0
01/08:04am 9.4 9.3 9.3 99 0.1 CALM 0 0 0 0 1025.9 1026.0 1.0
01/08:00am 9.3 9.1 9.2 99 0.1 CALM 0 0 0 0 1025.8 1025.9 1.0
01/07:56am 9.3 9.1 9.2 99 0.1 CALM 0 0 0 0 1025.8 1025.9 1.0
01/07:30am 9.1 7.7 9.0 99 0.1 ESE 6 6 3 3 1025.7 1025.8 1.0
01/07:09am 9.0 7.6 8.9 99 0.1 ESE 6 7 3 4 1025.6 1025.7 1.0
01/07:00am 9.0 7.6 8.9 99 0.1 ESE 6 7 3 4 1025.5 1025.6 1.0
01/06:45am 9.3 9.1 9.2 99 0.1 CALM 0 0 0 0 1025.4 1025.5 1.0
01/06:30am 9.3 9.1 9.2 99 0.1 CALM 0 0 0 0 1025.2 1025.2 1.0
01/06:10am 9.2 9.0 9.1 99 0.1 CALM 0 0 0 0 1025.1 1025.1 1.0
01/06:05am 9.2 9.0 9.1 99 0.1 CALM 0 0 0 0 1025.1 1025.1 1.0
01/06:00am 9.2 9.0 9.1 99 0.1 CALM 0 0 0 0 1025.0 1025.0 1.0
01/05:30am 9.2 7.9 9.1 99 0.1 WNW 6 7 3 4 1024.9 1024.9 1.0
01/05:05am 9.2 7.7 9.1 99 0.1 WNW 7 9 4 5 1024.9 1024.9 1.0
01/05:00am 9.2 7.7 9.1 99 0.1 WNW 7 9 4 5 1024.9 1024.9 1.0
01/04:30am 9.2 7.7 9.1 99 0.1 NNW 7 13 4 7 1024.7 1024.7 1.0
01/04:00am 9.3 7.1 9.2 99 0.1 N 11 15 6 8 1024.9 1024.9 1.0
01/03:58am 9.3 7.1 9.2 99 0.1 N 11 15 6 8 1024.9 1024.9 1.0
01/03:30am 9.3 7.1 9.2 99 0.1 NW 11 13 6 7 1025.0 1025.0 1.0
01/03:18am 9.3 7.1 9.2 99 0.1 NW 11 13 6 7 1025.1 1025.1 1.0
01/03:00am 9.3 6.3 9.2 99 0.1 WNW 15 17 8 9 1025.1 1025.1 1.0
01/02:30am 9.2 6.5 9.1 99 0.1 NW 13 15 7 8 1025.3 1025.4 0.8
01/02:04am 9.2 6.5 9.1 99 0.1 NW 13 15 7 8 1025.4 1025.5 0.8
01/02:00am 9.3 6.7 9.2 99 0.1 NW 13 15 7 8 1025.4 1025.5 0.8
01/01:45am 9.2 6.9 9.1 99 0.1 NNW 11 13 6 7 1025.4 1025.5 0.8
01/01:30am 9.3 7.4 9.2 99 0.1 NW 9 11 5 6 1025.5 1025.6 0.8
01/01:00am 9.1 6.0 9.0 99 0.1 NW 15 17 8 9 1025.6 1025.7 0.8
01/12:30am 9.2 5.4 9.1 99 0.1 NNW 19 24 10 13 1025.9 1026.0 0.4
01/12:10am 9.3 5.3 9.2 99 0.1 NW 20 24 11 13 1025.9 1026.0 0.2
01/12:00am 9.4 5.7 9.3 99 0.1 NW 19 22 10 12 1026.1 1026.1 0.2
 
Date/Time
EST
Temp
°C
App
Temp
°C
Dew
Point
Rel
Hum
%
Delta-T
°C
Wind Press
QNH
hPa
Press
MSL
hPa
Rain
since 9 am
mm
Dir
 
Spd
km/h
Gust
km/h
Spd
kts
Gust
kts
30/11:30pm 9.5 7.6 9.0 97 0.3 ESE 9 9 5 5 1026.1 1026.1 0.2
30/11:20pm 9.7 8.1 8.6 93 0.6 ESE 7 11 4 6 1025.9 1026.0 0.2
30/11:00pm 10.7 9.3 9.6 93 0.6 NNW 7 11 4 6 1026.4 1026.4 0.2
30/10:30pm 9.9 7.7 9.3 96 0.3 NW 11 13 6 7 1026.7 1026.8 0.2

Other Formats:

Comma delimited format used in spreadsheet applications
http://www.bom.gov.au/fwo/IDN60801/IDN60801.95747.axf

JavaScript Object Notation format (JSON) in row-major order
http://www.bom.gov.au/fwo/IDN60801/IDN60801.95747.json